createdAt,value
2022-12-12T00:01:01.355Z,23.00
2022-12-12T00:04:06.902Z,23.20
2022-12-12T00:07:08.894Z,23.70
2022-12-12T00:10:11.613Z,24.00
2022-12-12T00:13:13.550Z,23.80
2022-12-12T00:16:16.647Z,23.90
2022-12-12T00:19:19.821Z,24.10
2022-12-12T00:22:22.057Z,24.20
2022-12-12T00:25:24.075Z,24.60
2022-12-12T00:28:26.905Z,24.40
2022-12-12T00:31:29.234Z,24.10
2022-12-12T00:34:31.538Z,23.90
2022-12-12T00:37:33.469Z,23.30
2022-12-12T00:40:36.319Z,23.00
2022-12-12T00:43:38.307Z,22.60
2022-12-12T00:46:40.555Z,21.90
2022-12-12T00:49:42.444Z,22.30
2022-12-12T00:52:44.636Z,21.40
2022-12-12T00:55:54.162Z,21.10
2022-12-12T00:58:56.354Z,21.20
2022-12-12T01:01:58.303Z,20.90
2022-12-12T01:05:00.522Z,20.50
2022-12-12T01:08:02.620Z,20.40
2022-12-12T01:11:05.654Z,20.90
2022-12-12T01:14:07.626Z,21.70
2022-12-12T01:17:09.869Z,22.10
2022-12-12T01:20:21.892Z,22.50
2022-12-12T01:23:24.321Z,21.30
2022-12-12T01:26:26.544Z,22.40
2022-12-12T01:29:28.914Z,22.60
2022-12-12T01:32:30.877Z,22.80
2022-12-12T01:35:34.042Z,23.30
2022-12-12T01:38:36.653Z,23.80
2022-12-12T01:41:38.888Z,23.90
2022-12-12T01:44:48.546Z,23.60
2022-12-12T01:47:50.798Z,23.60
2022-12-12T01:50:53.675Z,23.40
2022-12-12T01:54:07.369Z,23.50
2022-12-12T01:57:18.185Z,23.70
2022-12-12T02:00:21.135Z,24.10
2022-12-12T02:03:23.232Z,24.30
2022-12-12T02:06:28.708Z,24.50
2022-12-12T02:09:32.028Z,24.50
2022-12-12T02:12:34.377Z,24.90
2022-12-12T02:15:40.512Z,24.90
2022-12-12T02:18:54.597Z,24.90
2022-12-12T02:22:18.945Z,25.10
2022-12-12T02:25:55.086Z,25.20
2022-12-12T02:29:55.201Z,25.60
2022-12-12T02:33:06.137Z,25.50
2022-12-12T02:36:13.384Z,25.40
2022-12-12T02:40:09.147Z,25.50
2022-12-12T02:43:25.488Z,25.70
2022-12-12T02:46:34.802Z,25.90
2022-12-12T02:49:46.242Z,26.00
2022-12-12T02:52:48.826Z,25.80
2022-12-12T02:56:05.397Z,25.80
2022-12-12T02:59:08.125Z,25.80
2022-12-12T03:02:31.657Z,25.50
2022-12-12T03:06:40.908Z,25.10
2022-12-12T03:10:04.450Z,25.40
2022-12-12T03:13:17.762Z,25.60
2022-12-12T03:16:27.546Z,25.70
2022-12-12T03:19:44.907Z,25.80
2022-12-12T03:22:49.377Z,25.90
2022-12-12T03:25:54.089Z,25.90
2022-12-12T03:29:15.920Z,25.80
2022-12-12T03:32:24.646Z,26.00
2022-12-12T03:35:34.263Z,25.60
2022-12-12T03:38:41.452Z,25.80
2022-12-12T03:41:52.268Z,25.70
2022-12-12T03:45:12.366Z,25.60
2022-12-12T03:48:36.313Z,25.80
2022-12-12T03:51:43.605Z,26.00
2022-12-12T03:55:04.428Z,26.00
2022-12-12T03:58:14.571Z,26.00
2022-12-12T04:01:18.855Z,25.90
2022-12-12T04:04:47.722Z,25.80
2022-12-12T04:07:54.927Z,25.90
2022-12-12T04:11:24.193Z,26.00
2022-12-12T04:14:32.378Z,26.10
2022-12-12T04:17:42.071Z,25.80
2022-12-12T04:21:46.816Z,26.00
2022-12-12T04:24:58.267Z,26.00
2022-12-12T04:28:05.597Z,26.10
2022-12-12T04:31:11.119Z,26.10
2022-12-12T04:34:19.738Z,26.20
2022-12-12T04:37:27.438Z,26.10
2022-12-12T04:40:30.669Z,25.60
2022-12-12T04:43:37.703Z,25.70
2022-12-12T04:46:41.292Z,25.80
2022-12-12T04:49:46.657Z,25.80
2022-12-12T04:52:50.645Z,25.90
2022-12-12T04:55:56.954Z,25.90
2022-12-12T04:58:59.147Z,25.70
2022-12-12T05:02:23.900Z,25.90
2022-12-12T05:05:31.210Z,26.00
2022-12-12T05:08:42.792Z,26.10
2022-12-12T05:11:47.629Z,26.10
2022-12-12T05:14:50.124Z,25.50
2022-12-12T05:17:59.083Z,25.20
2022-12-12T05:21:01.243Z,25.40
2022-12-12T05:24:03.253Z,25.50
2022-12-12T05:27:06.047Z,25.60
2022-12-12T05:30:08.729Z,25.50
2022-12-12T05:33:10.963Z,25.20
2022-12-12T05:36:13.295Z,25.50
2022-12-12T05:39:15.528Z,25.10
2022-12-12T05:42:17.380Z,25.40
2022-12-12T05:45:19.664Z,25.40
2022-12-12T05:48:24.440Z,25.00
2022-12-12T05:51:26.970Z,24.90
2022-12-12T05:54:28.914Z,24.90
2022-12-12T05:57:31.218Z,24.50
2022-12-12T06:00:33.192Z,24.20
2022-12-12T06:03:35.742Z,24.40
2022-12-12T06:06:40.071Z,24.60
2022-12-12T06:09:42.432Z,24.20
2022-12-12T06:12:44.330Z,24.10
2022-12-12T06:15:46.671Z,24.20
2022-12-12T06:18:52.789Z,24.40
2022-12-12T06:21:56.473Z,24.60
2022-12-12T06:24:58.350Z,23.90
2022-12-12T06:28:00.825Z,23.80
2022-12-12T06:31:08.183Z,24.30
2022-12-12T06:34:15.469Z,24.60
2022-12-12T06:37:17.629Z,24.30
2022-12-12T06:40:19.917Z,24.30
2022-12-12T06:43:22.341Z,23.90
2022-12-12T06:46:27.033Z,23.80
2022-12-12T06:49:29.038Z,23.40
2022-12-12T06:52:31.443Z,22.60
2022-12-12T06:55:33.388Z,22.10
2022-12-12T06:58:35.907Z,21.50
2022-12-12T07:01:37.942Z,21.70
2022-12-12T07:04:40.266Z,22.10
2022-12-12T07:07:42.176Z,23.10
2022-12-12T07:10:44.501Z,23.90
2022-12-12T07:13:46.844Z,24.10
2022-12-12T07:16:49.084Z,24.30
2022-12-12T07:19:51.016Z,24.40
2022-12-12T07:22:53.184Z,24.40
2022-12-12T07:25:55.172Z,24.80
2022-12-12T07:28:57.545Z,24.60
2022-12-12T07:31:59.577Z,24.60
2022-12-12T07:35:12.163Z,24.60
2022-12-12T07:38:14.286Z,24.30
2022-12-12T07:41:20.319Z,24.30
2022-12-12T07:44:22.337Z,23.90
2022-12-12T07:47:24.521Z,23.80
2022-12-12T07:50:26.535Z,24.00
2022-12-12T07:53:29.145Z,23.80
2022-12-12T07:56:31.384Z,23.60
2022-12-12T07:59:33.756Z,22.70
2022-12-12T08:02:35.634Z,23.00
2022-12-12T08:05:42.533Z,23.80
2022-12-12T08:08:45.803Z,23.90
2022-12-12T08:11:48.019Z,23.60
2022-12-12T08:14:50.054Z,23.80
2022-12-12T08:17:52.342Z,23.80
2022-12-12T08:20:54.234Z,24.10
2022-12-12T08:24:02.251Z,23.10
2022-12-12T08:27:05.117Z,23.20
2022-12-12T08:30:08.697Z,23.40
2022-12-12T08:33:12.502Z,24.10
2022-12-12T08:36:32.425Z,24.10
2022-12-12T08:39:34.867Z,24.20
2022-12-12T08:42:37.040Z,24.10
2022-12-12T08:45:39.875Z,23.40
2022-12-12T08:48:42.650Z,23.10
2022-12-12T08:51:44.729Z,23.10
2022-12-12T08:54:46.908Z,23.30
2022-12-12T08:57:48.980Z,23.30
2022-12-12T09:00:51.157Z,23.50
2022-12-12T09:03:55.247Z,24.10
2022-12-12T09:06:57.584Z,24.40
2022-12-12T09:09:59.676Z,24.70
2022-12-12T09:13:01.914Z,24.80
2022-12-12T09:16:05.350Z,24.10
2022-12-12T09:19:07.627Z,24.00
2022-12-12T09:22:09.510Z,24.00
2022-12-12T09:25:12.289Z,24.00
2022-12-12T09:28:18.921Z,24.20
2022-12-12T09:31:21.638Z,23.10
2022-12-12T09:34:23.652Z,23.00
2022-12-12T09:37:25.834Z,23.40
2022-12-12T09:40:35.928Z,23.40
2022-12-12T09:43:49.069Z,23.00
2022-12-12T09:47:03.474Z,23.50
2022-12-12T09:50:29.815Z,23.40
2022-12-12T09:53:31.877Z,23.10
2022-12-12T09:56:57.049Z,22.70
2022-12-12T10:00:09.530Z,22.80
2022-12-12T10:03:29.715Z,22.20
2022-12-12T10:06:43.855Z,23.10
2022-12-12T10:10:04.632Z,23.20
2022-12-12T10:13:16.266Z,22.80
2022-12-12T10:16:18.547Z,22.70
2022-12-12T10:19:27.885Z,22.70
2022-12-12T10:22:40.539Z,23.40
2022-12-12T10:26:10.327Z,22.60
2022-12-12T10:29:17.847Z,23.20
2022-12-12T10:32:47.260Z,24.20
2022-12-12T10:36:19.872Z,24.60
2022-12-12T10:39:35.519Z,25.20
2022-12-12T10:42:56.555Z,25.00
2022-12-12T10:46:22.699Z,24.80
2022-12-12T10:49:25.326Z,25.00
2022-12-12T10:52:27.326Z,25.50
2022-12-12T10:55:56.481Z,26.10
2022-12-12T10:59:01.481Z,26.00
2022-12-12T11:02:11.243Z,25.80
2022-12-12T11:05:16.390Z,25.50
2022-12-12T11:08:22.246Z,25.60
2022-12-12T11:11:27.292Z,25.40
2022-12-12T11:14:48.114Z,25.60
2022-12-12T11:17:50.218Z,24.90
2022-12-12T11:21:12.908Z,25.10
2022-12-12T11:24:20.820Z,25.00
2022-12-12T11:27:29.012Z,24.60
2022-12-12T11:30:42.290Z,24.70
2022-12-12T11:33:54.828Z,24.60
2022-12-12T11:36:59.152Z,25.40
2022-12-12T11:40:01.973Z,25.40
2022-12-12T11:43:19.443Z,25.00
2022-12-12T11:46:27.579Z,24.70
2022-12-12T11:49:31.313Z,24.40
2022-12-12T11:52:33.820Z,24.20
2022-12-12T11:55:53.229Z,24.60
2022-12-12T11:59:10.699Z,24.40
2022-12-12T12:02:18.745Z,23.60
2022-12-12T12:05:47.614Z,23.40
2022-12-12T12:09:08.799Z,22.90
2022-12-12T12:12:49.105Z,23.40
2022-12-12T12:16:02.849Z,23.00
2022-12-12T12:19:18.187Z,22.60
2022-12-12T12:22:32.013Z,23.10
2022-12-12T12:25:43.307Z,22.80
2022-12-12T12:29:16.234Z,22.00
2022-12-12T12:32:53.619Z,22.40
2022-12-12T12:36:08.252Z,23.00
2022-12-12T12:39:45.249Z,22.70
2022-12-12T12:43:14.773Z,23.10
2022-12-12T12:46:55.153Z,23.50
2022-12-12T12:50:13.248Z,23.80
2022-12-12T12:53:26.818Z,22.70
2022-12-12T12:56:31.641Z,22.70
2022-12-12T12:59:39.526Z,22.70
2022-12-12T13:03:06.318Z,22.60
2022-12-12T13:06:31.310Z,21.90
2022-12-12T13:10:30.685Z,22.90
2022-12-12T13:17:16.925Z,22.70
2022-12-12T13:20:24.916Z,23.80
2022-12-12T13:27:47.837Z,24.20
2022-12-12T13:31:12.708Z,24.40
2022-12-12T13:34:23.201Z,24.60
2022-12-12T13:37:30.637Z,25.00
2022-12-12T13:40:42.218Z,24.40
2022-12-12T13:43:47.513Z,24.10
2022-12-12T13:46:52.788Z,24.20
2022-12-12T13:50:22.596Z,24.40
2022-12-12T13:53:24.781Z,24.30
2022-12-12T13:56:47.348Z,24.90
2022-12-12T14:00:14.382Z,24.00
2022-12-12T14:03:29.348Z,24.30
2022-12-12T14:06:39.827Z,24.90
2022-12-12T14:09:49.448Z,25.20
2022-12-12T14:12:53.114Z,25.40
2022-12-12T14:16:00.935Z,25.70
2022-12-12T14:19:17.776Z,25.50
2022-12-12T14:22:45.820Z,25.80
2022-12-12T14:25:49.347Z,25.80
2022-12-12T14:29:16.295Z,26.10
2022-12-12T14:32:49.086Z,25.90
2022-12-12T14:39:42.153Z,26.20
2022-12-12T14:43:20.625Z,25.30
2022-12-12T14:46:20.022Z,25.40
2022-12-12T14:49:22.090Z,25.80
2022-12-12T14:52:24.453Z,26.00
2022-12-12T14:55:26.500Z,25.60
2022-12-12T14:58:34.033Z,25.90
2022-12-12T15:01:40.728Z,25.80
2022-12-12T15:04:46.262Z,25.60
2022-12-12T15:07:58.485Z,25.40
2022-12-12T15:11:00.710Z,25.80
2022-12-12T15:14:03.918Z,25.70
2022-12-12T15:17:09.621Z,25.90
2022-12-12T15:20:20.739Z,25.60
2022-12-12T15:23:23.624Z,25.60
2022-12-12T15:26:32.611Z,25.60
2022-12-12T15:29:37.833Z,24.90
2022-12-12T15:32:39.948Z,25.60
2022-12-12T15:36:02.450Z,25.50
2022-12-12T15:39:13.531Z,25.40
2022-12-12T15:42:16.054Z,25.70
2022-12-12T15:45:22.531Z,25.70
2022-12-12T15:48:28.359Z,25.70
2022-12-12T15:51:32.185Z,25.80
2022-12-12T15:54:34.473Z,25.50
2022-12-12T15:57:48.266Z,25.80
2022-12-12T16:00:52.463Z,25.30
2022-12-12T16:04:03.449Z,25.30
2022-12-12T16:07:21.545Z,25.30
2022-12-12T16:10:24.542Z,25.40
2022-12-12T16:13:36.122Z,25.30
2022-12-12T16:16:45.141Z,25.50
2022-12-12T16:19:56.663Z,25.40
2022-12-12T16:23:23.077Z,25.60
2022-12-12T16:26:25.333Z,25.20
2022-12-12T16:29:27.257Z,25.50
2022-12-12T16:32:29.397Z,25.40
2022-12-12T16:35:31.307Z,24.90
2022-12-12T16:38:34.696Z,24.40
2022-12-12T16:41:39.318Z,24.60
2022-12-12T16:44:41.575Z,23.80
2022-12-12T16:47:43.513Z,24.00
2022-12-12T16:50:47.077Z,23.80
2022-12-12T16:53:49.026Z,24.00
2022-12-12T16:56:54.302Z,24.00
2022-12-12T16:59:56.248Z,23.80
2022-12-12T17:02:58.509Z,23.80
2022-12-12T17:06:01.634Z,24.30
2022-12-12T17:09:04.290Z,24.70
2022-12-12T17:12:08.837Z,24.80
2022-12-12T17:15:16.820Z,24.40
2022-12-12T17:18:19.385Z,24.50
2022-12-12T17:21:22.515Z,24.70
2022-12-12T17:24:25.275Z,24.60
2022-12-12T17:27:29.327Z,24.70
2022-12-12T17:30:37.365Z,25.10
2022-12-12T17:33:49.920Z,25.30
2022-12-12T17:36:52.815Z,24.90
2022-12-12T17:39:55.043Z,25.10
2022-12-12T17:42:57.315Z,25.40
2022-12-12T17:46:01.603Z,25.30
2022-12-12T17:49:03.613Z,25.00
2022-12-12T17:52:05.917Z,24.90
2022-12-12T17:55:51.699Z,24.80
2022-12-12T17:58:33.162Z,24.80
2022-12-12T18:01:35.833Z,24.80
2022-12-12T18:04:38.560Z,25.40
2022-12-12T18:07:40.514Z,25.40
2022-12-12T18:10:42.686Z,25.40
2022-12-12T18:13:45.414Z,25.80
2022-12-12T18:16:52.998Z,25.70
2022-12-12T18:19:54.946Z,25.70
2022-12-12T18:22:57.345Z,25.80
2022-12-12T18:26:07.964Z,25.60
2022-12-12T18:29:12.627Z,25.80
2022-12-12T18:32:14.688Z,25.70
2022-12-12T18:35:16.986Z,25.50
2022-12-12T18:38:19.354Z,26.00
2022-12-12T18:41:21.897Z,25.80
2022-12-12T18:44:23.805Z,25.50
2022-12-12T18:47:26.021Z,25.70
2022-12-12T18:50:29.222Z,25.70
2022-12-12T18:53:31.529Z,25.70
2022-12-12T18:56:33.657Z,25.80
2022-12-12T18:59:36.628Z,25.80
2022-12-12T19:02:40.620Z,25.80
2022-12-12T19:05:44.311Z,25.90
2022-12-12T19:08:46.475Z,25.80
2022-12-12T19:11:49.292Z,25.80
2022-12-12T19:18:13.462Z,25.70
2022-12-12T19:21:19.105Z,25.70
2022-12-12T19:24:21.328Z,25.70
2022-12-12T19:27:23.215Z,25.40
2022-12-12T19:30:28.042Z,25.60
2022-12-12T19:33:31.336Z,25.50
2022-12-12T19:36:34.079Z,25.40
2022-12-12T19:39:36.059Z,25.40
2022-12-12T19:42:39.417Z,25.40
2022-12-12T19:45:43.984Z,25.30
2022-12-12T19:48:47.944Z,25.10
2022-12-12T19:51:49.953Z,24.90
2022-12-12T19:54:52.195Z,24.50
2022-12-12T19:57:54.119Z,24.50
2022-12-12T20:01:14.335Z,24.40
2022-12-12T20:04:22.008Z,24.60
2022-12-12T20:07:24.267Z,24.50
2022-12-12T20:10:26.212Z,24.50
2022-12-12T20:13:28.897Z,24.60
2022-12-12T20:16:31.141Z,24.50
2022-12-12T20:19:33.398Z,25.00
2022-12-12T20:22:38.484Z,24.90
2022-12-12T20:25:42.139Z,25.10
2022-12-12T20:28:44.328Z,25.00
2022-12-12T20:31:47.324Z,25.20
2022-12-12T20:34:49.826Z,25.20
2022-12-12T20:37:54.507Z,25.10
2022-12-12T20:40:56.482Z,25.20
2022-12-12T20:44:00.345Z,25.30
2022-12-12T20:47:02.504Z,25.30
2022-12-12T20:50:06.281Z,25.40
2022-12-12T20:53:08.145Z,25.40
2022-12-12T20:56:22.340Z,25.10
2022-12-12T20:59:25.161Z,25.30
2022-12-12T21:02:30.336Z,25.50
2022-12-12T21:05:32.589Z,25.60
2022-12-12T21:08:34.873Z,25.50
2022-12-12T21:11:38.321Z,25.40
2022-12-12T21:14:40.512Z,25.50
2022-12-12T21:17:42.474Z,25.20
2022-12-12T21:20:45.098Z,25.50
2022-12-12T21:23:47.841Z,25.50
2022-12-12T21:26:50.638Z,25.20
2022-12-12T21:29:52.827Z,25.40
2022-12-12T21:32:55.551Z,25.10
2022-12-12T21:36:10.363Z,25.30
2022-12-12T21:39:15.746Z,25.40
2022-12-12T21:42:17.661Z,25.30
2022-12-12T21:45:19.945Z,25.00
2022-12-12T21:48:21.819Z,25.30
2022-12-12T21:51:24.120Z,25.40
2022-12-12T21:54:28.910Z,25.30
2022-12-12T21:57:31.173Z,25.20
2022-12-12T22:00:40.116Z,24.80
2022-12-12T22:03:43.554Z,24.70
2022-12-12T22:06:46.646Z,25.00
2022-12-12T22:09:57.853Z,25.00
2022-12-12T22:13:10.709Z,25.10
2022-12-12T22:16:17.851Z,24.90
2022-12-12T22:19:19.858Z,24.90
2022-12-12T22:22:22.255Z,24.90
2022-12-12T22:25:25.214Z,24.60
2022-12-12T22:28:28.564Z,24.80
2022-12-12T22:31:32.903Z,24.70
2022-12-12T22:34:37.514Z,24.50
2022-12-12T22:37:39.398Z,24.20
2022-12-12T22:40:41.618Z,24.40
2022-12-12T22:43:43.463Z,24.20
2022-12-12T22:46:47.013Z,24.50
2022-12-12T22:49:48.932Z,24.30
2022-12-12T22:52:51.137Z,23.90
2022-12-12T22:55:53.090Z,24.00
2022-12-12T22:58:55.724Z,24.20
2022-12-12T23:01:57.765Z,24.40
2022-12-12T23:04:59.995Z,24.30
2022-12-12T23:08:02.077Z,24.30
2022-12-12T23:11:15.331Z,24.10
2022-12-12T23:14:21.726Z,24.10
2022-12-12T23:17:23.990Z,24.70
2022-12-12T23:20:26.114Z,24.10
2022-12-12T23:23:29.795Z,24.10
2022-12-12T23:26:34.237Z,24.10
2022-12-12T23:29:36.391Z,23.80
2022-12-12T23:32:38.292Z,23.90
2022-12-12T23:35:49.429Z,23.40
2022-12-12T23:38:55.679Z,23.60
2022-12-12T23:41:58.034Z,23.80
2022-12-12T23:45:00.027Z,24.30
2022-12-12T23:48:02.882Z,24.40
2022-12-12T23:51:04.866Z,24.60
2022-12-12T23:54:10.376Z,24.40
2022-12-12T23:57:12.330Z,24.10
